Wellsburg, West Virginia
Current Conditions -  °F | °C
As of 6:53 PM on Saturday 25 Oct 2014 (Local Time) from KHLG Reporting Station
Broken Clouds Broken Clouds  
Wind Chill: 63°   Ceiling: 3500
Heat Index: 63°   Visibility: 10mi
Dew Point: 51°   Wind: 10mph
Humidity: 65%   Direction: 230°SW
Pressure: 29.78"   Gusts: 22mph
Location:  40.27°N, 80.61°W
Report Text: KHLG 252253Z AUTO 23009G19KT 10SM BKN035 17/11 A2978 RMK AO2 SLP088 T01720106
Loading
Personal Weather Stations






























Interactive Weather Map
Tropical Storm Tracking
New forecast layout! Learn more

10-Day Weather Forecast

Advertisements
Track Severe Weather on mobile